Warroad, Minnesota
Current Conditions -  °F | °C
As of 3:54 AM on Thursday 23 Oct 2014 (Local Time) from KRRT Reporting Station
Overcast Overcast  
Wind Chill: 50°   Ceiling: 6000
Heat Index: 50°   Visibility: 7mi
Dew Point: 46°   Wind: 5mph
Humidity: 87%   Direction: 180°S
Pressure: 29.82"   Gusts: NA
Location:  48.91°N, 95.32°W
Report Text: KRRT 230854Z AUTO 18004KT 7SM OVC060 10/08 A2982 RMK AO2
Loading
Personal Weather Stations






























Interactive Weather Map
Tropical Storm Tracking
New forecast layout! Learn more

10-Day Weather Forecast

Advertisements
Track Severe Weather on mobile